»·PEaware :: AAL343 KSEA-KBOI

AAL343 :: KSEA-KBOI

FLIGHT INFORMATION

Flight Status: Arrived
Operator:
American Airlines
More flights by this operator :: More flights under this callsign
Pilot: James W. (12414)
Aircraft: BOEING 757-200
(B752)
More flights by this aircraft type
Origin: KSEA Seattle-Tacoma Intl
United States
Destination: KBOI Boise Air Terminal/Gowen
United States
More flights between these airports :: More routes between these airports
Route: SUMMA1 SUMMA J54 BKE DEVLE KYAAN3
File this flight plan on PilotEdge
Remarks:
Altitude:
(Current/Filed)
370ft
Speed:
(Current/Filed)
450kts
Departed: 07-Feb-18 05:18 PM
Arrived: 07-Feb-18 06:09 PM
Distance/Time
Traveled:
346nm/0:50
Distance/Time
To Go:
Arrived

Flight Plot

Page will automatically refresh every two minutes.

Flight plan parsing failed; only flown route is shown


Map Options




Map Legend


Flown Route
Filed Route
Departure Airport
Arrival Airport
Navaid (VOR, NDB)
Fix

Horizontal Profiles

Position Reports

Time Latitude Longitude Heading Altitude Ground
Speed
07-Feb-18 16:51 47.447002 -122.299214 187 445ft 0kts
07-Feb-18 16:52 47.447002 -122.299214 187 445ft 0kts
07-Feb-18 16:53 47.447002 -122.299214 187 445ft 0kts
07-Feb-18 16:54 47.447002 -122.299214 187 445ft 0kts
07-Feb-18 16:55 47.447002 -122.299214 187 445ft 0kts
07-Feb-18 16:56 47.447002 -122.299214 187 445ft 0kts
07-Feb-18 16:57 47.447002 -122.299214 187 445ft 0kts
07-Feb-18 16:58 47.447002 -122.299214 187 445ft 0kts
07-Feb-18 16:59 47.447002 -122.299214 187 444ft 0kts
07-Feb-18 17:00 47.447002 -122.299214 187 444ft 0kts
07-Feb-18 17:01 47.447002 -122.299214 187 444ft 0kts
07-Feb-18 17:02 47.447002 -122.299214 187 444ft 0kts
07-Feb-18 17:03 47.447002 -122.299214 187 444ft 0kts
07-Feb-18 17:04 47.447002 -122.299214 187 444ft 0kts
07-Feb-18 17:05 47.447002 -122.299214 187 444ft 0kts
07-Feb-18 17:06 47.447002 -122.299214 187 444ft 0kts
07-Feb-18 17:07 47.447002 -122.299214 187 444ft 0kts
07-Feb-18 17:08 47.447002 -122.299214 187 444ft 0kts
07-Feb-18 17:09 47.447002 -122.299214 187 444ft 0kts
07-Feb-18 17:10 47.447002 -122.299214 187 444ft 0kts
07-Feb-18 17:11 47.447002 -122.299214 187 444ft 0kts
07-Feb-18 17:12 47.447002 -122.299214 187 444ft 0kts
07-Feb-18 17:13 47.447002 -122.299214 187 444ft 0kts
07-Feb-18 17:14 47.447002 -122.299214 187 445ft 0kts
07-Feb-18 17:15 47.447299 -122.299030 258 444ft 1kts
07-Feb-18 17:16 47.447252 -122.298773 320 444ft 0kts
07-Feb-18 17:17 47.447252 -122.298773 320 444ft 0kts
07-Feb-18 17:18 47.447252 -122.298773 320 444ft 0kts
07-Feb-18 17:19 47.450105 -122.302615 276 444ft 13kts
07-Feb-18 17:20 47.450169 -122.304550 295 444ft 20kts
07-Feb-18 17:21 47.456222 -122.306169 0 444ft 29kts
07-Feb-18 17:22 47.463589 -122.306314 316 444ft 5kts
07-Feb-18 17:23 47.463280 -122.307647 199 444ft 12kts
07-Feb-18 17:24 47.432288 -122.308407 178 1435ft 225kts
07-Feb-18 17:25 47.363832 -122.317249 178 3481ft 243kts
07-Feb-18 17:26 47.297962 -122.313600 179 5461ft 241kts
07-Feb-18 17:27 47.230183 -122.297807 161 7449ft 273kts
07-Feb-18 17:28 47.156362 -122.257421 166 9441ft 294kts
07-Feb-18 17:29 47.077565 -122.217742 168 11445ft 306kts
07-Feb-18 17:30 46.994513 -122.176350 168 13471ft 338kts
07-Feb-18 17:31 46.896834 -122.127667 165 14502ft 414kts
07-Feb-18 17:32 46.787042 -122.072744 165 17146ft 432kts
07-Feb-18 17:33 46.671669 -122.014189 160 19569ft 453kts
07-Feb-18 17:34 46.576475 -121.890024 120 21757ft 484kts
07-Feb-18 17:35 46.510248 -121.717104 119 23793ft 500kts
07-Feb-18 17:37 46.439872 -121.540139 120 25637ft 516kts
07-Feb-18 17:38 46.367114 -121.359000 120 27308ft 531kts
07-Feb-18 17:39 46.292880 -121.175468 120 29127ft 537kts
07-Feb-18 17:40 46.216837 -120.988734 120 30674ft 547kts
07-Feb-18 17:41 46.139653 -120.800467 120 32470ft 548kts
07-Feb-18 17:42 46.063457 -120.615857 119 34304ft 548kts
07-Feb-18 17:43 45.985905 -120.429205 119 36257ft 543kts
07-Feb-18 17:44 45.909367 -120.246230 120 37287ft 543kts
07-Feb-18 17:45 45.833759 -120.066648 120 37295ft 542kts
07-Feb-18 17:46 45.755906 -119.882944 120 37309ft 542kts
07-Feb-18 17:47 45.677918 -119.700091 120 37312ft 542kts
07-Feb-18 17:48 45.599291 -119.516910 120 37315ft 542kts
07-Feb-18 17:49 45.521436 -119.336695 121 37313ft 542kts
07-Feb-18 17:50 45.442601 -119.155397 121 37313ft 542kts
07-Feb-18 17:51 45.363174 -118.973895 121 37322ft 542kts
07-Feb-18 17:52 45.283541 -118.793070 121 37325ft 543kts
07-Feb-18 17:53 45.203389 -118.612257 121 37340ft 543kts
07-Feb-18 17:54 45.122867 -118.431738 121 37374ft 543kts
07-Feb-18 17:55 45.045365 -118.259119 121 37369ft 538kts
07-Feb-18 17:56 44.965699 -118.082726 121 37386ft 531kts
07-Feb-18 17:57 44.887588 -117.910791 121 37381ft 530kts
07-Feb-18 17:58 44.788859 -117.764418 147 36738ft 532kts
07-Feb-18 17:59 44.669466 -117.654549 149 34216ft 494kts
07-Feb-18 18:00 44.558158 -117.554955 149 31717ft 460kts
07-Feb-18 18:01 44.453596 -117.462065 149 29214ft 437kts
07-Feb-18 18:02 44.353006 -117.373090 149 26559ft 423kts
07-Feb-18 18:03 44.256754 -117.288297 149 23915ft 411kts
07-Feb-18 18:04 44.169293 -117.192642 137 21261ft 401kts
07-Feb-18 18:05 44.089800 -117.088845 137 18596ft 390kts
07-Feb-18 18:06 44.011902 -116.987303 136 15926ft 382kts
07-Feb-18 18:07 43.943474 -116.878323 122 13266ft 373kts
07-Feb-18 18:08 43.886368 -116.761119 121 10607ft 366kts
07-Feb-18 18:09 43.829700 -116.648206 132 8033ft 351kts
07-Feb-18 18:10 43.761203 -116.572487 138 7989ft 285kts
07-Feb-18 18:11 43.697664 -116.504785 139 6181ft 304kts
07-Feb-18 18:12 43.634022 -116.431264 116 4989ft 272kts
07-Feb-18 18:13 43.605687 -116.347466 111 5011ft 204kts
07-Feb-18 18:14 43.586843 -116.294105 107 4082ft 136kts
07-Feb-18 18:15 43.572083 -116.248422 112 3022ft 129kts
07-Feb-18 18:16 43.564079 -116.224104 55 2882ft 11kts
07-Feb-18 18:17 43.566684 -116.223387 41 2882ft 9kts
07-Feb-18 18:18 43.567557 -116.222614 20 2882ft 0kts

Navigation Log

Ident Type
Flight plan parsing failed, navigation log unavailable